createdAt,value
2023-04-28T00:00:55.769Z,154.99
2023-04-28T00:01:55.748Z,153.90
2023-04-28T00:02:55.888Z,149.51
2023-04-28T00:03:55.920Z,143.48
2023-04-28T00:04:55.830Z,142.15
2023-04-28T00:05:55.825Z,139.68
2023-04-28T00:06:55.738Z,138.31
2023-04-28T00:07:55.723Z,136.51
2023-04-28T00:08:55.708Z,139.68
2023-04-28T00:09:55.692Z,142.94
2023-04-28T00:10:55.679Z,145.27
2023-04-28T00:11:55.676Z,148.46
2023-04-28T00:12:55.674Z,151.65
2023-04-28T00:13:55.696Z,151.24
2023-04-28T00:14:55.682Z,143.46
2023-04-28T00:15:55.675Z,136.42
2023-04-28T00:16:55.758Z,134.36
2023-04-28T00:17:55.740Z,131.31
2023-04-28T00:18:55.640Z,130.95
2023-04-28T00:19:55.622Z,131.32
2023-04-28T00:20:55.624Z,127.10
2023-04-28T00:21:55.614Z,128.98
2023-04-28T00:22:55.604Z,130.69
2023-04-28T00:23:55.614Z,129.19
2023-04-28T00:24:55.589Z,131.42
2023-04-28T00:25:55.581Z,133.88
2023-04-28T00:26:55.579Z,133.70
2023-04-28T00:27:55.569Z,131.32
2023-04-28T00:28:55.562Z,130.66
2023-04-28T00:29:55.555Z,128.18
2023-04-28T00:30:55.540Z,127.95
2023-04-28T00:31:55.620Z,128.61
2023-04-28T00:32:55.556Z,129.84
2023-04-28T00:33:55.522Z,130.25
2023-04-28T00:34:55.514Z,130.94
2023-04-28T00:35:55.491Z,130.15
2023-04-28T00:36:55.498Z,134.30
2023-04-28T00:37:55.506Z,136.84
2023-04-28T00:38:55.470Z,139.31
2023-04-28T00:39:55.464Z,140.26
2023-04-28T00:40:55.471Z,142.88
2023-04-28T00:41:55.463Z,143.29
2023-04-28T00:42:55.445Z,145.43
2023-04-28T00:43:55.449Z,150.27
2023-04-28T00:44:55.449Z,149.06
2023-04-28T00:45:55.541Z,151.60
2023-04-28T00:46:55.415Z,152.49
2023-04-28T00:47:55.468Z,155.54
2023-04-28T00:48:55.400Z,160.22
2023-04-28T00:49:55.410Z,164.17
2023-04-28T00:50:55.428Z,167.73
2023-04-28T00:51:55.475Z,165.04
2023-04-28T00:52:55.512Z,161.40
2023-04-28T00:53:55.545Z,161.86
2023-04-28T00:54:55.565Z,160.65
2023-04-28T00:55:55.599Z,155.90
2023-04-28T00:56:55.624Z,150.02
2023-04-28T00:57:55.660Z,151.30
2023-04-28T00:58:55.683Z,152.62
2023-04-28T00:59:55.681Z,164.44
2023-04-28T01:00:55.743Z,176.24
2023-04-28T01:01:55.747Z,180.15
2023-04-28T01:02:55.954Z,172.43
2023-04-28T01:03:55.942Z,168.06
2023-04-28T01:04:55.823Z,163.12
2023-04-28T01:05:55.838Z,160.19
2023-04-28T01:06:55.873Z,160.50
2023-04-28T01:07:55.941Z,157.67
2023-04-28T01:08:56.000Z,157.95
2023-04-28T01:09:56.015Z,160.15
2023-04-28T01:10:56.030Z,163.48
2023-04-28T01:11:56.071Z,171.07
2023-04-28T01:12:56.084Z,187.17
2023-04-28T01:13:56.126Z,195.98
2023-04-28T01:14:56.144Z,198.94
2023-04-28T01:15:56.163Z,197.96
2023-04-28T01:16:56.233Z,198.65
2023-04-28T01:17:56.348Z,197.75
2023-04-28T01:18:56.260Z,198.46
2023-04-28T01:19:56.287Z,197.61
2023-04-28T01:20:56.312Z,196.86
2023-04-28T01:21:56.379Z,196.09
2023-04-28T01:22:56.416Z,193.42
2023-04-28T01:23:56.456Z,190.55
2023-04-28T01:24:56.453Z,187.54
2023-04-28T01:25:56.515Z,184.06
2023-04-28T01:26:56.520Z,178.65
2023-04-28T01:27:56.574Z,176.99
2023-04-28T01:28:56.579Z,189.18
2023-04-28T01:29:56.598Z,193.82
2023-04-28T01:30:56.659Z,191.22
2023-04-28T01:31:56.859Z,181.71
2023-04-28T01:32:56.809Z,176.17
2023-04-28T01:33:56.805Z,175.94
2023-04-28T01:34:56.841Z,171.18
2023-04-28T01:35:56.902Z,164.74
2023-04-28T01:36:56.961Z,158.47
2023-04-28T01:37:56.979Z,153.95
2023-04-28T01:38:57.069Z,152.75
2023-04-28T01:39:57.081Z,148.57
2023-04-28T01:40:57.103Z,149.94
2023-04-28T01:41:57.149Z,153.57
2023-04-28T01:42:57.171Z,153.11
2023-04-28T01:43:57.203Z,153.50
2023-04-28T01:44:57.237Z,155.12
2023-04-28T01:45:57.327Z,155.86
2023-04-28T01:46:57.299Z,157.84
2023-04-28T01:47:57.391Z,162.78
2023-04-28T01:48:57.371Z,166.44
2023-04-28T01:49:57.406Z,176.33
2023-04-28T01:50:57.441Z,178.74
2023-04-28T01:51:57.461Z,179.68
2023-04-28T01:52:57.490Z,183.42
2023-04-28T01:53:57.495Z,189.03
2023-04-28T01:54:57.537Z,189.59
2023-04-28T01:55:57.567Z,187.57
2023-04-28T01:56:57.751Z,186.96
2023-04-28T01:57:57.623Z,189.05
2023-04-28T01:58:57.686Z,190.31
2023-04-28T01:59:57.728Z,190.20
2023-04-28T02:00:57.722Z,196.91
2023-04-28T02:01:57.915Z,210.91
2023-04-28T02:02:57.883Z,221.16
2023-04-28T02:03:57.892Z,230.01
2023-04-28T02:04:57.920Z,233.09
2023-04-28T02:05:57.866Z,228.07
2023-04-28T02:06:57.912Z,214.80
2023-04-28T02:07:57.949Z,204.06
2023-04-28T02:08:57.964Z,194.39
2023-04-28T02:09:58.047Z,183.93
2023-04-28T02:10:58.075Z,175.42
2023-04-28T02:11:58.098Z,169.64
2023-04-28T02:12:58.141Z,166.74
2023-04-28T02:13:58.166Z,172.65
2023-04-28T02:14:58.219Z,183.77
2023-04-28T02:15:58.337Z,189.45
2023-04-28T02:16:58.279Z,187.43
2023-04-28T02:17:58.375Z,183.03
2023-04-28T02:18:58.354Z,178.26
2023-04-28T02:19:58.405Z,181.50
2023-04-28T02:20:58.441Z,186.18
2023-04-28T02:21:58.451Z,189.03
2023-04-28T02:22:58.519Z,191.70
2023-04-28T02:23:58.557Z,195.88
2023-04-28T02:24:58.579Z,196.88
2023-04-28T02:25:58.613Z,197.85
2023-04-28T02:26:58.662Z,200.75
2023-04-28T02:27:58.669Z,201.23
2023-04-28T02:28:58.697Z,202.77
2023-04-28T02:29:58.744Z,203.23
2023-04-28T02:30:59.352Z,201.20
2023-04-28T02:31:58.840Z,202.59
2023-04-28T02:32:58.832Z,200.68
2023-04-28T02:33:58.882Z,200.12
2023-04-28T02:34:58.923Z,198.89
2023-04-28T02:35:58.966Z,195.40
2023-04-28T02:36:58.992Z,196.92
2023-04-28T02:37:59.018Z,197.59
2023-04-28T02:38:59.044Z,201.01
2023-04-28T02:39:59.082Z,202.91
2023-04-28T02:40:59.108Z,201.77
2023-04-28T02:41:59.133Z,204.57
2023-04-28T02:42:59.179Z,207.58
2023-04-28T02:43:59.167Z,209.76
2023-04-28T02:44:59.198Z,209.89
2023-04-28T02:45:59.216Z,207.71
2023-04-28T02:46:59.297Z,208.06
2023-04-28T02:47:59.323Z,210.62
2023-04-28T02:48:59.299Z,210.47
2023-04-28T02:49:59.335Z,210.66
2023-04-28T02:50:59.402Z,213.06
2023-04-28T02:51:59.436Z,213.38
2023-04-28T02:52:59.441Z,217.27
2023-04-28T02:53:59.470Z,214.68
2023-04-28T02:54:59.501Z,211.31
2023-04-28T02:55:59.552Z,210.55
2023-04-28T02:56:59.563Z,208.25
2023-04-28T02:57:59.601Z,205.72
2023-04-28T02:58:59.634Z,198.65
2023-04-28T02:59:59.667Z,197.17
2023-04-28T03:00:59.735Z,197.52
2023-04-28T03:01:59.759Z,201.38
2023-04-28T03:02:59.982Z,202.41
2023-04-28T03:03:59.892Z,206.89
2023-04-28T03:04:59.876Z,210.06
2023-04-28T03:05:59.887Z,212.21
2023-04-28T03:06:59.925Z,212.73
2023-04-28T03:07:59.979Z,214.60
2023-04-28T03:08:59.998Z,214.65
2023-04-28T03:10:00.028Z,216.39
2023-04-28T03:11:00.101Z,215.75
2023-04-28T03:12:00.137Z,217.76
2023-04-28T03:13:00.184Z,215.18
2023-04-28T03:14:00.210Z,216.45
2023-04-28T03:15:00.218Z,215.57
2023-04-28T03:16:00.326Z,216.48
2023-04-28T03:17:00.270Z,216.08
2023-04-28T03:18:00.364Z,219.49
2023-04-28T03:19:00.322Z,220.62
2023-04-28T03:20:00.389Z,217.78
2023-04-28T03:21:00.394Z,219.57
2023-04-28T03:22:00.395Z,222.61
2023-04-28T03:23:00.419Z,220.65
2023-04-28T03:24:00.432Z,216.75
2023-04-28T03:25:00.456Z,215.04
2023-04-28T03:26:00.501Z,209.72
2023-04-28T03:27:00.529Z,210.38
2023-04-28T03:28:00.588Z,212.57
2023-04-28T03:29:00.617Z,220.58
2023-04-28T03:30:00.654Z,225.95
2023-04-28T03:31:00.682Z,227.75
2023-04-28T03:32:00.799Z,224.69
2023-04-28T03:33:00.812Z,220.18
2023-04-28T03:34:00.790Z,217.10
2023-04-28T03:35:00.847Z,213.09
2023-04-28T03:36:00.896Z,207.50
2023-04-28T03:37:00.921Z,206.65
2023-04-28T03:38:00.987Z,206.52
2023-04-28T03:39:01.000Z,206.71
2023-04-28T03:40:01.039Z,207.27
2023-04-28T03:41:01.096Z,208.45
2023-04-28T03:42:01.133Z,208.07
2023-04-28T03:43:02.692Z,212.41
2023-04-28T03:44:01.175Z,214.62
2023-04-28T03:45:01.178Z,211.74
2023-04-28T03:46:01.183Z,214.08
2023-04-28T03:47:01.148Z,214.24
2023-04-28T03:48:01.185Z,213.72
2023-04-28T03:49:01.160Z,215.89
2023-04-28T03:50:01.150Z,216.98
2023-04-28T03:51:01.189Z,217.37
2023-04-28T03:52:01.145Z,219.86
2023-04-28T03:53:01.125Z,220.94
2023-04-28T03:54:01.124Z,223.24
2023-04-28T03:55:01.120Z,222.47
2023-04-28T03:56:01.087Z,224.83
2023-04-28T03:57:01.112Z,226.94
2023-04-28T03:58:01.092Z,229.66
2023-04-28T03:59:01.078Z,228.06
2023-04-28T04:00:01.087Z,226.80
2023-04-28T04:01:01.124Z,224.14
2023-04-28T04:02:01.086Z,224.70
2023-04-28T04:03:01.128Z,223.91
2023-04-28T04:04:01.442Z,221.16
2023-04-28T04:05:01.396Z,217.77
2023-04-28T04:06:01.034Z,219.45
2023-04-28T04:07:01.047Z,217.40
2023-04-28T04:08:01.024Z,218.32
2023-04-28T04:09:01.008Z,220.71
2023-04-28T04:10:03.907Z,224.13
2023-04-28T04:11:01.019Z,224.24
2023-04-28T04:12:01.004Z,224.72
2023-04-28T04:13:00.976Z,227.12
2023-04-28T04:14:00.976Z,229.75
2023-04-28T04:15:00.990Z,234.55
2023-04-28T04:16:01.020Z,234.03
2023-04-28T04:17:00.954Z,238.27
2023-04-28T04:18:00.978Z,238.39
2023-04-28T04:19:00.936Z,237.43
2023-04-28T04:20:00.941Z,238.61
2023-04-28T04:21:00.932Z,241.18
2023-04-28T04:22:00.928Z,244.60
2023-04-28T04:23:00.910Z,246.17
2023-04-28T04:24:00.906Z,250.00
2023-04-28T04:25:00.890Z,249.45
2023-04-28T04:26:00.908Z,248.20
2023-04-28T04:27:00.894Z,247.47
2023-04-28T04:28:00.872Z,247.79
2023-04-28T04:29:00.877Z,246.54
2023-04-28T04:30:00.860Z,246.96
2023-04-28T04:31:00.899Z,246.95
2023-04-28T04:32:00.857Z,249.55
2023-04-28T04:33:00.877Z,249.06
2023-04-28T04:34:00.833Z,247.83
2023-04-28T04:35:00.837Z,246.05
2023-04-28T04:36:00.840Z,243.89
2023-04-28T04:37:00.822Z,239.88
2023-04-28T04:38:00.798Z,235.90
2023-04-28T04:39:00.785Z,233.90
2023-04-28T04:40:00.807Z,232.62
2023-04-28T04:41:00.770Z,228.44
2023-04-28T04:42:07.260Z,228.05
2023-04-28T04:43:01.782Z,228.13
2023-04-28T04:44:00.804Z,225.37
2023-04-28T04:45:00.762Z,224.12
2023-04-28T04:46:00.794Z,225.34
2023-04-28T04:47:00.902Z,223.18
2023-04-28T04:48:00.748Z,222.62
2023-04-28T04:49:00.725Z,223.23
2023-04-28T04:50:00.748Z,226.47
2023-04-28T04:51:00.704Z,232.16
2023-04-28T04:52:00.708Z,236.47
2023-04-28T04:53:00.700Z,238.69
2023-04-28T04:54:00.676Z,241.60
2023-04-28T04:55:00.663Z,244.03
2023-04-28T04:56:00.674Z,245.90
2023-04-28T04:57:00.672Z,248.57
2023-04-28T04:58:00.684Z,249.91
2023-04-28T04:59:00.692Z,249.12
2023-04-28T05:00:00.705Z,248.53
2023-04-28T05:01:00.743Z,249.54
2023-04-28T05:02:00.800Z,248.80
2023-04-28T05:03:01.009Z,250.00
2023-04-28T05:04:00.995Z,249.33
2023-04-28T05:05:12.463Z,247.84
2023-04-28T05:06:01.858Z,248.03
2023-04-28T05:07:00.845Z,248.88
2023-04-28T05:08:00.819Z,250.20
2023-04-28T05:09:00.826Z,253.05
2023-04-28T05:10:00.814Z,255.80
2023-04-28T05:11:00.818Z,248.28
2023-04-28T05:12:00.798Z,246.03
2023-04-28T05:13:00.809Z,243.77
2023-04-28T05:14:00.787Z,243.50
2023-04-28T05:15:00.789Z,241.53
2023-04-28T05:16:00.837Z,240.55
2023-04-28T05:17:00.807Z,238.41
2023-04-28T05:18:00.789Z,237.08
2023-04-28T05:19:00.837Z,234.25
2023-04-28T05:20:00.856Z,234.38
2023-04-28T05:21:00.906Z,236.02
2023-04-28T05:22:00.952Z,236.94
2023-04-28T05:23:00.993Z,241.25
2023-04-28T05:24:01.040Z,245.45
2023-04-28T05:25:01.090Z,249.13
2023-04-28T05:26:01.120Z,249.87
2023-04-28T05:27:01.195Z,250.27
2023-04-28T05:28:01.235Z,249.73
2023-04-28T05:29:01.224Z,249.03
2023-04-28T05:30:01.307Z,249.95
2023-04-28T05:31:01.325Z,249.40
2023-04-28T05:32:01.424Z,250.28
2023-04-28T05:33:01.557Z,250.75
2023-04-28T05:34:01.384Z,252.97
2023-04-28T05:35:01.445Z,249.80
2023-04-28T05:36:01.527Z,247.51
2023-04-28T05:37:01.499Z,241.64
2023-04-28T05:38:01.519Z,238.75
2023-04-28T05:39:01.528Z,245.82
2023-04-28T05:40:01.615Z,249.49
2023-04-28T05:41:01.609Z,248.01
2023-04-28T05:42:01.669Z,250.00
2023-04-28T05:43:01.703Z,249.59
2023-04-28T05:44:01.740Z,250.00
2023-04-28T05:45:01.738Z,249.42
2023-04-28T05:46:01.816Z,244.32
2023-04-28T05:47:01.952Z,223.21
2023-04-28T05:48:01.889Z,210.90
2023-04-28T05:49:01.875Z,195.95
2023-04-28T05:50:01.900Z,194.88
2023-04-28T05:51:01.951Z,186.77
2023-04-28T05:52:02.031Z,183.50
2023-04-28T05:53:02.020Z,181.66
2023-04-28T05:54:02.074Z,180.94
2023-04-28T05:55:02.106Z,179.44
2023-04-28T05:56:02.178Z,178.53
2023-04-28T05:57:02.196Z,179.73
2023-04-28T05:58:02.252Z,179.65
2023-04-28T05:59:02.301Z,183.79
2023-04-28T06:00:02.301Z,195.13
2023-04-28T06:01:02.372Z,192.74
2023-04-28T06:02:02.454Z,195.22
2023-04-28T06:03:02.546Z,199.11
2023-04-28T06:04:02.627Z,197.12
2023-04-28T06:05:02.796Z,195.36
2023-04-28T06:06:02.678Z,182.14
2023-04-28T06:07:02.867Z,178.02
2023-04-28T06:08:02.589Z,182.36
2023-04-28T06:09:02.592Z,187.10
2023-04-28T06:10:02.633Z,193.63
2023-04-28T06:11:02.689Z,201.06
2023-04-28T06:12:02.712Z,202.43
2023-04-28T06:13:02.730Z,195.27
2023-04-28T06:14:02.779Z,191.47
2023-04-28T06:15:02.834Z,196.92
2023-04-28T06:16:02.962Z,192.23
2023-04-28T06:17:02.914Z,192.93
2023-04-28T06:18:03.400Z,194.34
2023-04-28T06:19:02.987Z,193.07
2023-04-28T06:20:02.974Z,206.61
2023-04-28T06:21:03.000Z,216.90
2023-04-28T06:22:03.040Z,223.96
2023-04-28T06:23:03.073Z,230.95
2023-04-28T06:24:03.097Z,234.99
2023-04-28T06:25:03.118Z,239.85
2023-04-28T06:26:03.117Z,242.74
2023-04-28T06:27:03.150Z,244.65
2023-04-28T06:28:03.132Z,245.67
2023-04-28T06:29:03.190Z,247.46
2023-04-28T06:30:03.255Z,249.23
2023-04-28T06:31:03.336Z,250.00
2023-04-28T06:32:03.399Z,244.19
2023-04-28T06:33:03.385Z,241.89
2023-04-28T06:34:03.430Z,238.99
2023-04-28T06:35:03.447Z,243.44
2023-04-28T06:36:03.500Z,244.51
2023-04-28T06:37:03.866Z,243.40
2023-04-28T06:38:03.548Z,234.28
2023-04-28T06:39:03.567Z,206.26
2023-04-28T06:40:03.647Z,186.49
2023-04-28T06:41:03.654Z,180.06
2023-04-28T06:42:03.715Z,187.08
2023-04-28T06:43:03.729Z,193.92
2023-04-28T06:44:03.769Z,201.40
2023-04-28T06:45:03.780Z,207.81
2023-04-28T06:46:03.790Z,213.05
2023-04-28T06:47:03.868Z,221.00
2023-04-28T06:48:03.963Z,225.13
2023-04-28T06:49:03.884Z,231.97
2023-04-28T06:50:03.891Z,237.63
2023-04-28T06:51:03.956Z,243.26
2023-04-28T06:52:03.989Z,248.02
2023-04-28T06:53:04.386Z,249.52
2023-04-28T06:54:04.093Z,247.63
2023-04-28T06:55:04.098Z,248.37
2023-04-28T06:56:04.161Z,250.00
2023-04-28T06:57:04.392Z,250.00
2023-04-28T06:58:04.544Z,250.00
2023-04-28T06:59:04.259Z,250.00
2023-04-28T07:00:04.299Z,250.00
2023-04-28T07:01:04.446Z,250.00
2023-04-28T07:02:04.419Z,249.69
2023-04-28T07:03:04.591Z,249.77
2023-04-28T07:04:04.541Z,249.73
2023-04-28T07:05:04.494Z,250.00
2023-04-28T07:06:04.494Z,250.00
2023-04-28T07:07:04.556Z,250.00
2023-04-28T07:08:04.905Z,250.00
2023-04-28T07:09:04.644Z,250.00
2023-04-28T07:10:04.656Z,249.74
2023-04-28T07:11:04.889Z,249.27
2023-04-28T07:12:04.710Z,249.35
2023-04-28T07:13:04.764Z,250.00
2023-04-28T07:14:04.800Z,249.82
2023-04-28T07:15:04.863Z,250.00
2023-04-28T07:16:04.934Z,250.00
2023-04-28T07:17:04.941Z,249.91
2023-04-28T07:18:05.476Z,249.73
2023-04-28T07:19:05.032Z,249.81
2023-04-28T07:20:05.052Z,249.96
2023-04-28T07:21:05.773Z,249.38
2023-04-28T07:22:05.260Z,250.08
2023-04-28T07:23:05.191Z,249.67
2023-04-28T07:24:05.246Z,246.79
2023-04-28T07:25:05.303Z,246.11
2023-04-28T07:26:05.398Z,247.24
2023-04-28T07:27:05.371Z,248.06
2023-04-28T07:28:05.399Z,246.26
2023-04-28T07:29:05.396Z,235.30
2023-04-28T07:30:15.175Z,225.72
2023-04-28T07:31:06.439Z,219.92
2023-04-28T07:32:07.433Z,212.50
2023-04-28T07:33:06.172Z,206.71
2023-04-28T07:34:05.395Z,198.82
2023-04-28T07:35:05.392Z,193.68
2023-04-28T07:36:05.393Z,189.61
2023-04-28T07:37:05.444Z,184.15
2023-04-28T07:38:05.462Z,180.62
2023-04-28T07:39:05.437Z,175.69
2023-04-28T07:40:05.498Z,172.86
2023-04-28T07:41:07.517Z,170.83
2023-04-28T07:42:05.910Z,170.86
2023-04-28T07:43:05.483Z,169.35
2023-04-28T07:44:05.515Z,167.72
2023-04-28T07:45:05.453Z,165.49
2023-04-28T07:46:05.523Z,162.69
2023-04-28T07:47:05.445Z,159.99
2023-04-28T07:48:05.480Z,158.95
2023-04-28T07:49:05.426Z,159.10
2023-04-28T07:50:05.474Z,161.76
2023-04-28T07:51:05.413Z,159.48
2023-04-28T07:52:05.422Z,163.48
2023-04-28T07:53:05.400Z,168.36
2023-04-28T07:54:05.391Z,175.18
2023-04-28T07:55:05.396Z,179.45
2023-04-28T07:56:05.390Z,185.45
2023-04-28T07:57:05.367Z,190.32
2023-04-28T07:58:05.355Z,193.78
2023-04-28T07:59:05.363Z,195.44
2023-04-28T08:00:05.363Z,197.52
2023-04-28T08:01:05.377Z,200.71
2023-04-28T08:02:05.456Z,202.30
2023-04-28T08:03:05.575Z,203.53
2023-04-28T08:04:05.631Z,204.52
2023-04-28T08:05:05.512Z,206.45
2023-04-28T08:06:05.411Z,208.98
2023-04-28T08:07:05.414Z,209.04
2023-04-28T08:08:05.405Z,207.66
2023-04-28T08:09:05.291Z,207.67
2023-04-28T08:10:05.356Z,208.23
2023-04-28T08:11:05.350Z,203.59
2023-04-28T08:12:05.382Z,204.09
2023-04-28T08:13:05.509Z,203.37
2023-04-28T08:14:05.455Z,203.81
2023-04-28T08:15:05.493Z,203.34
2023-04-28T08:16:05.611Z,204.05
2023-04-28T08:17:05.607Z,204.53
2023-04-28T08:18:05.998Z,205.23
2023-04-28T08:19:05.785Z,202.63
2023-04-28T08:20:05.734Z,201.65
2023-04-28T08:21:05.778Z,196.68
2023-04-28T08:22:06.016Z,190.59
2023-04-28T08:23:05.932Z,187.25
2023-04-28T08:24:05.865Z,189.32
2023-04-28T08:25:05.933Z,187.54
2023-04-28T08:26:05.957Z,186.42
2023-04-28T08:27:06.001Z,180.98
2023-04-28T08:28:06.032Z,180.68
2023-04-28T08:29:06.074Z,180.09
2023-04-28T08:30:06.102Z,180.79
2023-04-28T08:31:06.182Z,180.56
2023-04-28T08:32:06.145Z,183.45
2023-04-28T08:33:07.646Z,178.14
2023-04-28T08:34:06.255Z,185.42
2023-04-28T08:35:06.304Z,183.29
2023-04-28T08:36:06.511Z,183.85
2023-04-28T08:37:06.340Z,181.30
2023-04-28T08:38:06.416Z,178.12
2023-04-28T08:39:06.436Z,179.19
2023-04-28T08:40:06.489Z,178.18
2023-04-28T08:41:06.646Z,178.01
2023-04-28T08:42:06.846Z,181.33
2023-04-28T08:43:06.796Z,186.65
2023-04-28T08:44:06.630Z,191.45
2023-04-28T08:45:06.766Z,196.77
2023-04-28T08:46:06.762Z,197.63
2023-04-28T08:47:06.767Z,199.84
2023-04-28T08:48:06.808Z,199.88
2023-04-28T08:49:06.816Z,191.61
2023-04-28T08:50:06.807Z,190.95
2023-04-28T08:51:06.951Z,193.20
2023-04-28T08:52:06.831Z,196.20
2023-04-28T08:53:06.859Z,195.84
2023-04-28T08:55:06.860Z,198.01
2023-04-28T08:56:06.919Z,191.08
2023-04-28T08:57:06.863Z,195.75
2023-04-28T08:58:06.871Z,195.35
2023-04-28T08:59:06.846Z,195.58
2023-04-28T09:00:06.785Z,198.20
2023-04-28T09:01:06.860Z,205.19
2023-04-28T09:02:07.018Z,210.29
2023-04-28T09:03:06.894Z,200.19
2023-04-28T09:04:06.843Z,202.19
2023-04-28T09:05:06.938Z,189.95
2023-04-28T09:06:06.764Z,192.63
2023-04-28T09:07:06.765Z,193.37
2023-04-28T09:08:06.773Z,195.97
2023-04-28T09:09:06.732Z,190.95
2023-04-28T09:10:06.719Z,178.97
2023-04-28T09:11:06.721Z,169.63
2023-04-28T09:12:06.710Z,159.00
2023-04-28T09:13:06.924Z,157.27
2023-04-28T09:14:06.692Z,162.79
2023-04-28T09:15:06.702Z,171.99
2023-04-28T09:16:06.707Z,176.00
2023-04-28T09:17:06.682Z,175.43
2023-04-28T09:18:06.760Z,175.33
2023-04-28T09:19:06.666Z,183.06
2023-04-28T09:20:06.661Z,189.98
2023-04-28T09:21:06.650Z,194.00
2023-04-28T09:22:21.894Z,197.73
2023-04-28T09:23:07.643Z,197.88
2023-04-28T09:24:06.629Z,198.17
2023-04-28T09:25:06.608Z,197.34
2023-04-28T09:26:06.644Z,185.46
2023-04-28T09:27:06.614Z,181.44
2023-04-28T09:28:06.933Z,178.36
2023-04-28T09:29:06.593Z,177.03
2023-04-28T09:30:06.598Z,175.35
2023-04-28T09:31:06.609Z,181.32
2023-04-28T09:32:06.673Z,184.94
2023-04-28T09:33:08.232Z,175.43
2023-04-28T09:34:06.550Z,170.45
2023-04-28T09:35:06.550Z,159.42
2023-04-28T09:36:06.531Z,155.87
2023-04-28T09:37:06.540Z,150.55
2023-04-28T09:38:06.954Z,148.53
2023-04-28T09:39:06.963Z,148.14
2023-04-28T09:40:06.524Z,149.46
2023-04-28T09:41:06.526Z,148.68
2023-04-28T09:42:06.530Z,147.77
2023-04-28T09:43:21.027Z,149.07
2023-04-28T09:44:07.495Z,149.20
2023-04-28T09:45:06.492Z,150.79
2023-04-28T09:46:06.533Z,153.53
2023-04-28T09:47:06.476Z,155.12
2023-04-28T09:48:06.999Z,157.97
2023-04-28T09:49:06.951Z,158.89
2023-04-28T09:50:06.740Z,153.39
2023-04-28T09:51:06.431Z,153.64
2023-04-28T09:52:06.452Z,151.56
2023-04-28T09:53:06.430Z,149.33
2023-04-28T09:54:06.494Z,144.48
2023-04-28T09:55:06.422Z,142.45
2023-04-28T09:56:06.452Z,145.89
2023-04-28T09:57:06.735Z,155.71
2023-04-28T09:58:06.399Z,150.96
2023-04-28T09:59:06.513Z,150.78
2023-04-28T10:00:07.128Z,152.61
2023-04-28T10:01:06.491Z,147.58
2023-04-28T10:02:25.945Z,139.08
2023-04-28T10:03:07.538Z,136.58
2023-04-28T10:04:06.631Z,138.76
2023-04-28T10:05:06.741Z,139.87
2023-04-28T10:06:06.435Z,146.34
2023-04-28T10:07:06.464Z,157.52
2023-04-28T10:08:06.426Z,161.42
2023-04-28T10:09:06.448Z,164.05
2023-04-28T10:10:06.412Z,168.92
2023-04-28T10:11:06.412Z,171.25
2023-04-28T10:12:06.400Z,173.40
2023-04-28T10:13:06.444Z,175.61
2023-04-28T10:14:06.475Z,178.33
2023-04-28T10:15:06.391Z,186.63
2023-04-28T10:16:06.470Z,194.14
2023-04-28T10:17:06.500Z,196.18
2023-04-28T10:18:06.622Z,200.86
2023-04-28T10:19:06.559Z,204.65
2023-04-28T10:20:06.596Z,205.42
2023-04-28T10:21:06.626Z,206.88
2023-04-28T10:22:06.685Z,206.09
2023-04-28T10:23:06.729Z,204.83
2023-04-28T10:24:06.982Z,202.73
2023-04-28T10:25:06.789Z,190.82
2023-04-28T10:26:06.833Z,183.72
2023-04-28T10:27:06.870Z,178.73
2023-04-28T10:28:06.933Z,175.14
2023-04-28T10:29:06.940Z,169.05
2023-04-28T10:30:15.801Z,162.75
2023-04-28T10:31:07.970Z,159.20
2023-04-28T10:32:06.969Z,152.01
2023-04-28T10:33:07.005Z,147.66
2023-04-28T10:34:06.943Z,143.16
2023-04-28T10:35:06.946Z,136.87
2023-04-28T10:36:06.919Z,134.52
2023-04-28T10:37:06.992Z,132.01
2023-04-28T10:38:06.927Z,136.06
2023-04-28T10:39:06.921Z,136.67
2023-04-28T10:40:08.328Z,141.20
2023-04-28T10:41:06.910Z,138.25
2023-04-28T10:42:06.915Z,134.99
2023-04-28T10:43:06.900Z,132.94
2023-04-28T10:44:06.969Z,128.00
2023-04-28T10:45:06.986Z,123.81
2023-04-28T10:46:07.203Z,124.25
2023-04-28T10:47:07.116Z,126.61
2023-04-28T10:48:07.153Z,134.24
2023-04-28T10:49:07.214Z,140.36
2023-04-28T10:50:07.255Z,143.94
2023-04-28T10:51:07.337Z,153.85
2023-04-28T10:52:07.372Z,153.22
2023-04-28T10:53:07.400Z,147.06
2023-04-28T10:54:07.490Z,143.81
2023-04-28T10:55:19.415Z,143.50
2023-04-28T10:56:08.510Z,143.74
2023-04-28T10:57:07.510Z,145.26
2023-04-28T10:58:07.512Z,146.84
2023-04-28T10:59:07.490Z,147.62
2023-04-28T11:00:07.480Z,148.75
2023-04-28T11:01:07.536Z,150.53
2023-04-28T11:02:07.573Z,147.98
2023-04-28T11:03:07.569Z,143.04
2023-04-28T11:04:07.618Z,144.27
2023-04-28T11:05:07.570Z,148.57
2023-04-28T11:06:07.449Z,143.54
2023-04-28T11:07:07.436Z,139.91
2023-04-28T11:08:07.500Z,138.76
2023-04-28T11:09:07.488Z,139.07
2023-04-28T11:10:07.510Z,137.45
2023-04-28T11:11:07.567Z,144.16
2023-04-28T11:12:07.546Z,143.18
2023-04-28T11:13:07.582Z,147.65
2023-04-28T11:14:08.020Z,149.06
2023-04-28T11:15:07.661Z,148.41
2023-04-28T11:16:07.688Z,151.85
2023-04-28T11:17:07.723Z,156.44
2023-04-28T11:18:07.770Z,160.83
2023-04-28T11:19:08.017Z,169.78
2023-04-28T11:20:07.746Z,174.64
2023-04-28T11:21:07.793Z,177.10
2023-04-28T11:22:07.837Z,174.94
2023-04-28T11:23:07.863Z,175.52
2023-04-28T11:24:08.014Z,170.66
2023-04-28T11:25:07.963Z,164.41
2023-04-28T11:26:08.031Z,164.09
2023-04-28T11:27:08.066Z,166.08
2023-04-28T11:28:08.083Z,163.31
2023-04-28T11:29:08.133Z,160.67
2023-04-28T11:30:08.172Z,159.81
2023-04-28T11:31:08.208Z,158.04
2023-04-28T11:32:08.312Z,150.77
2023-04-28T11:33:08.332Z,153.72
2023-04-28T11:34:08.277Z,147.26
2023-04-28T11:35:08.353Z,146.49
2023-04-28T11:36:08.371Z,145.53
2023-04-28T11:37:08.414Z,143.51
2023-04-28T11:38:08.464Z,142.94
2023-04-28T11:39:08.483Z,142.70
2023-04-28T11:40:08.526Z,141.39
2023-04-28T11:41:08.645Z,140.24
2023-04-28T11:42:08.569Z,132.53
2023-04-28T11:43:08.649Z,134.24
2023-04-28T11:44:08.672Z,134.09
2023-04-28T11:45:08.670Z,133.94
2023-04-28T11:46:08.696Z,134.47
2023-04-28T11:47:08.726Z,125.69
2023-04-28T11:48:08.858Z,128.74
2023-04-28T11:49:08.814Z,131.15
2023-04-28T11:50:08.858Z,131.09
2023-04-28T11:51:08.904Z,129.37
2023-04-28T11:52:08.966Z,124.98
2023-04-28T11:53:08.984Z,122.49
2023-04-28T11:54:09.085Z,120.78
2023-04-28T11:55:09.060Z,120.50
2023-04-28T11:56:09.226Z,118.54
2023-04-28T11:57:09.115Z,115.36
2023-04-28T11:58:09.109Z,115.33
2023-04-28T11:59:09.172Z,114.19
2023-04-28T12:00:09.239Z,116.43
2023-04-28T12:01:09.250Z,114.34
2023-04-28T12:02:09.277Z,112.09
2023-04-28T12:03:09.563Z,108.59
2023-04-28T12:04:09.404Z,110.42
2023-04-28T12:05:09.450Z,111.47
2023-04-28T12:06:09.338Z,114.38
2023-04-28T12:07:09.362Z,116.18
2023-04-28T12:08:09.366Z,114.05
2023-04-28T12:09:09.411Z,115.47
2023-04-28T12:10:09.559Z,113.26
2023-04-28T12:11:09.486Z,106.64
2023-04-28T12:12:09.567Z,103.66
2023-04-28T12:13:09.591Z,105.67
2023-04-28T12:14:09.622Z,101.76
2023-04-28T12:15:09.621Z,100.20
2023-04-28T12:16:09.707Z,99.26
2023-04-28T12:17:09.669Z,102.18
2023-04-28T12:18:09.814Z,104.03
2023-04-28T12:19:09.705Z,97.35
2023-04-28T12:20:09.748Z,97.98
2023-04-28T12:21:09.758Z,92.87
2023-04-28T12:22:09.801Z,90.36
2023-04-28T12:23:09.782Z,88.84
2023-04-28T12:24:09.817Z,87.61
2023-04-28T12:25:09.878Z,87.65
2023-04-28T12:26:09.851Z,89.44
2023-04-28T12:27:09.869Z,89.49
2023-04-28T12:28:09.873Z,90.89
2023-04-28T12:29:09.936Z,91.97
2023-04-28T12:30:09.901Z,89.89